Time;durP1;ratioP1;P1;durP2;ratioP2;P2;SDS_P1;SDS_P2;PMS_P1;PMS_P2;Temp;Humidity;BMP_temperature;BMP_pressure;BME280_temperature;BME280_humidity;BME280_pressure;Samples;Min_cycle;Max_cycle;Signal;HPM_P1;HPM_P2
2023/08/05 00:00:52;;;;;;;10.38;4.53;;;14.80;99.90;;;;;;5080027;28;20040;-56
2023/08/05 00:03:18;;;;;;;7.43;4.25;;;14.70;99.90;;;;;;5077661;28;20039;-56
2023/08/05 00:05:44;;;;;;;8.32;4.80;;;14.70;99.90;;;;;;5079762;28;20104;-57
2023/08/05 00:08:09;;;;;;;12.05;4.45;;;14.70;99.90;;;;;;5078090;28;20045;-56
2023/08/05 00:10:35;;;;;;;7.95;4.47;;;14.70;99.90;;;;;;5080856;28;20612;-56
2023/08/05 00:13:01;;;;;;;10.80;4.78;;;14.60;99.90;;;;;;5074590;28;20037;-56
2023/08/05 00:15:27;;;;;;;11.27;4.75;;;14.60;99.90;;;;;;5079907;28;20556;-57
2023/08/05 00:17:53;;;;;;;9.63;4.70;;;14.60;99.90;;;;;;5081368;28;20092;-58
2023/08/05 00:20:19;;;;;;;7.35;4.15;;;14.50;99.90;;;;;;5081699;28;20036;-58
2023/08/05 00:22:45;;;;;;;6.35;5.00;;;14.50;99.90;;;;;;5083424;28;20045;-56
2023/08/05 00:25:10;;;;;;;9.65;5.10;;;14.40;99.90;;;;;;5078848;28;20070;-56
2023/08/05 00:27:36;;;;;;;10.32;5.28;;;14.40;99.90;;;;;;5081959;28;20044;-56
2023/08/05 00:30:02;;;;;;;9.07;5.05;;;14.40;99.90;;;;;;5082286;28;20055;-58
2023/08/05 00:32:28;;;;;;;7.28;4.72;;;14.30;99.90;;;;;;5084244;28;20468;-57
2023/08/05 00:34:53;;;;;;;7.72;5.60;;;14.30;99.90;;;;;;5082240;28;20036;-56
2023/08/05 00:37:19;;;;;;;9.10;5.38;;;14.30;99.90;;;;;;5081498;28;20544;-56
2023/08/05 00:39:44;;;;;;;12.45;5.97;;;14.20;99.90;;;;;;5083744;28;20421;-56
2023/08/05 00:42:10;;;;;;;11.55;5.50;;;14.20;99.90;;;;;;5081505;28;20420;-57
2023/08/05 00:44:36;;;;;;;9.40;6.00;;;14.10;99.90;;;;;;5112927;28;20408;-57
2023/08/05 00:47:02;;;;;;;8.68;5.70;;;14.10;99.90;;;;;;5082118;28;20115;-56
2023/08/05 00:49:29;;;;;;;11.88;6.07;;;14.00;99.90;;;;;;5076977;28;20033;-57
2023/08/05 00:51:55;;;;;;;8.93;5.68;;;14.00;99.90;;;;;;5083080;28;20071;-56
2023/08/05 00:54:21;;;;;;;9.20;6.15;;;13.90;99.90;;;;;;5082186;28;20041;-56
2023/08/05 00:56:47;;;;;;;12.73;5.80;;;13.80;99.90;;;;;;5081882;28;20040;-57
2023/08/05 00:59:13;;;;;;;8.05;5.70;;;13.80;99.90;;;;;;5081537;28;20098;-57
2023/08/05 01:01:39;;;;;;;12.52;6.13;;;13.80;99.90;;;;;;5074544;28;20044;-57
2023/08/05 01:04:05;;;;;;;13.63;6.20;;;13.80;99.90;;;;;;5080808;28;20040;-56
2023/08/05 01:06:32;;;;;;;10.60;5.95;;;13.80;99.90;;;;;;5081375;28;20029;-55
2023/08/05 01:08:59;;;;;;;9.95;6.03;;;13.80;99.90;;;;;;5080461;28;20048;-56
2023/08/05 01:11:25;;;;;;;8.68;6.30;;;13.70;99.90;;;;;;5081092;28;20107;-56
2023/08/05 01:13:50;;;;;;;9.57;6.40;;;13.70;99.90;;;;;;5081024;28;20076;-56
2023/08/05 01:16:16;;;;;;;12.88;6.63;;;13.70;99.90;;;;;;5074885;28;20135;-56
2023/08/05 01:18:42;;;;;;;11.60;6.50;;;13.70;99.90;;;;;;5077056;28;20056;-57
2023/08/05 01:21:16;;;;;;;9.70;6.30;;;13.70;99.90;;;;;;5081807;28;20256;-56
2023/08/05 01:24:00;;;;;;;9.75;6.28;;;13.70;99.90;;;;;;5083104;28;20083;-56
2023/08/05 01:26:26;;;;;;;10.98;5.93;;;13.70;99.90;;;;;;5081507;28;20052;-55
2023/08/05 01:28:52;;;;;;;9.57;6.45;;;13.70;99.90;;;;;;5079877;28;20049;-56
2023/08/05 01:31:19;;;;;;;10.30;6.68;;;13.70;99.90;;;;;;5080246;28;20049;-57
2023/08/05 01:33:46;;;;;;;10.98;6.22;;;13.70;99.90;;;;;;5077991;28;20377;-56
2023/08/05 01:36:21;;;;;;;13.55;6.60;;;13.70;99.90;;;;;;5083266;28;20124;-58
2023/08/05 01:38:50;;;;;;;11.63;6.63;;;13.70;99.90;;;;;;5080507;28;20060;-56
2023/08/05 01:41:16;;;;;;;11.40;6.55;;;13.70;99.90;;;;;;5080898;28;20047;-56
2023/08/05 01:43:42;;;;;;;10.85;5.95;;;13.80;99.90;;;;;;5082316;28;20051;-55
2023/08/05 01:46:08;;;;;;;11.52;6.13;;;13.70;99.90;;;;;;5081628;28;20070;-56
2023/08/05 01:48:34;;;;;;;12.23;6.10;;;13.70;99.90;;;;;;5081003;28;20059;-55
2023/08/05 01:50:59;;;;;;;11.57;7.07;;;13.80;99.90;;;;;;5074847;28;20153;-56
2023/08/05 01:53:25;;;;;;;11.10;7.32;;;13.80;99.90;;;;;;5062853;28;20055;-57
2023/08/05 01:55:51;;;;;;;13.27;8.65;;;13.80;99.90;;;;;;5059971;28;20064;-56
2023/08/05 01:58:16;;;;;;;16.48;9.75;;;13.70;99.90;;;;;;5076844;28;20550;-56
2023/08/05 02:00:52;;;;;;;16.92;11.80;;;13.70;99.90;;;;;;5080894;28;20060;-57
2023/08/05 02:03:18;;;;;;;;;;;13.80;99.90;;;;;;5081194;28;20063;-56
2023/08/05 02:05:44;;;;;;;14.75;11.35;;;13.70;99.90;;;;;;5082237;28;19920;-57
2023/08/05 02:08:10;;;;;;;10.85;8.07;;;13.70;99.90;;;;;;5079765;28;20040;-57
2023/08/05 02:10:37;;;;;;;10.82;8.02;;;13.70;99.90;;;;;;5081811;28;20116;-58
2023/08/05 02:13:03;;;;;;;10.23;7.80;;;13.70;99.90;;;;;;5080535;28;20044;-54
2023/08/05 02:15:29;;;;;;;12.32;7.70;;;13.70;99.90;;;;;;5080262;28;20064;-56
2023/08/05 02:17:55;;;;;;;10.05;7.25;;;13.70;99.90;;;;;;5080326;28;20043;-57
2023/08/05 02:20:21;;;;;;;11.57;6.90;;;13.70;99.90;;;;;;5080698;28;20033;-56
2023/08/05 02:22:46;;;;;;;13.88;7.63;;;13.70;99.90;;;;;;5077243;28;20045;-56
2023/08/05 02:25:12;;;;;;;12.60;7.85;;;13.70;99.90;;;;;;5071775;28;20040;-56
2023/08/05 02:27:38;;;;;;;11.80;7.65;;;13.80;99.90;;;;;;5081827;28;20033;-57
2023/08/05 02:30:04;;;;;;;12.93;6.88;;;13.80;99.90;;;;;;5075072;28;20048;-56
2023/08/05 02:32:30;;;;;;;12.10;7.03;;;13.80;99.90;;;;;;5077992;28;20052;-56
2023/08/05 02:34:55;;;;;;;14.48;7.10;;;13.80;99.90;;;;;;5078637;28;20810;-56
2023/08/05 02:37:21;;;;;;;13.30;6.50;;;13.80;99.90;;;;;;5078692;28;20960;-57
2023/08/05 02:39:47;;;;;;;10.35;6.95;;;13.80;99.90;;;;;;5079259;28;20393;-56
2023/08/05 02:42:12;;;;;;;12.43;6.65;;;13.80;99.90;;;;;;5078404;28;20045;-56
2023/08/05 02:44:38;;;;;;;13.52;6.57;;;13.80;99.90;;;;;;5078079;28;20044;-56
2023/08/05 02:47:04;;;;;;;9.13;6.88;;;13.80;99.90;;;;;;5077716;28;20122;-56
2023/08/05 02:49:32;;;;;;;10.88;6.72;;;13.90;99.90;;;;;;5079650;28;20235;-57
2023/08/05 02:51:57;;;;;;;11.40;6.32;;;13.90;99.90;;;;;;5079476;28;20046;-56
2023/08/05 02:54:23;;;;;;;14.82;6.85;;;13.90;99.90;;;;;;5077605;28;20036;-57
2023/08/05 02:56:48;;;;;;;12.52;6.72;;;13.90;99.90;;;;;;5079874;28;20033;-57
2023/08/05 02:59:14;;;;;;;12.02;7.03;;;13.90;99.90;;;;;;5068146;28;20040;-56
2023/08/05 03:01:40;;;;;;;10.27;6.82;;;13.90;99.90;;;;;;5078609;28;20048;-56
2023/08/05 03:04:05;;;;;;;9.35;6.25;;;13.90;99.90;;;;;;5074683;28;20052;-55
2023/08/05 03:06:31;;;;;;;9.95;6.93;;;13.90;99.90;;;;;;5079346;28;20075;-57
2023/08/05 03:08:57;;;;;;;11.68;7.25;;;13.90;99.90;;;;;;5077817;28;20460;-55
2023/08/05 03:11:22;;;;;;;8.82;6.55;;;13.90;99.90;;;;;;5080118;28;20123;-56
2023/08/05 03:13:48;;;;;;;12.70;7.07;;;13.90;99.90;;;;;;5078686;28;20073;-56
2023/08/05 03:16:14;;;;;;;11.77;6.97;;;13.90;99.90;;;;;;5076571;28;20128;-56
2023/08/05 03:18:40;;;;;;;11.35;6.43;;;13.90;99.90;;;;;;5079791;28;20579;-57
2023/08/05 03:21:06;;;;;;;10.63;6.82;;;13.90;99.90;;;;;;5067952;28;20038;-56
2023/08/05 03:23:32;;;;;;;11.23;6.65;;;13.90;99.90;;;;;;5080208;28;20028;-56
2023/08/05 03:25:58;;;;;;;16.50;6.78;;;13.90;99.90;;;;;;5078674;28;20578;-55
2023/08/05 03:28:23;;;;;;;10.63;6.70;;;14.00;99.90;;;;;;5078227;28;20048;-56
2023/08/05 03:30:49;;;;;;;15.63;7.15;;;14.00;99.90;;;;;;5078222;28;20109;-56
2023/08/05 03:33:15;;;;;;;10.95;7.47;;;14.00;99.90;;;;;;5075015;28;20060;-56
2023/08/05 03:35:44;;;;;;;15.88;6.82;;;14.00;99.90;;;;;;5079321;28;20045;-58
2023/08/05 03:38:10;;;;;;;10.32;6.50;;;14.10;99.90;;;;;;5080380;28;20166;-56
2023/08/05 03:40:36;;;;;;;11.20;7.22;;;14.10;99.90;;;;;;5067287;28;20101;-57
2023/08/05 03:43:02;;;;;;;9.32;6.78;;;14.00;99.90;;;;;;5059437;28;20040;-56
2023/08/05 03:45:28;;;;;;;16.58;6.82;;;14.10;99.90;;;;;;5064266;28;20036;-56
2023/08/05 03:47:55;;;;;;;11.52;6.95;;;14.10;99.90;;;;;;5080271;28;20048;-56
2023/08/05 03:50:21;;;;;;;12.48;6.97;;;14.10;99.90;;;;;;5069170;28;20519;-56
2023/08/05 03:52:48;;;;;;;12.50;6.50;;;14.10;99.90;;;;;;5062909;28;20033;-56
2023/08/05 03:55:14;;;;;;;12.70;7.20;;;14.10;99.90;;;;;;5058948;28;20440;-56
2023/08/05 03:57:40;;;;;;;10.75;6.88;;;14.10;99.90;;;;;;5059544;28;20053;-56
2023/08/05 04:00:11;;;;;;;10.65;6.45;;;14.20;99.90;;;;;;5059142;28;20029;-56
2023/08/05 04:02:37;;;;;;;12.50;6.68;;;14.20;99.90;;;;;;5061682;28;20089;-56
2023/08/05 04:05:06;;;;;;;13.13;6.65;;;14.20;99.90;;;;;;5067007;28;20508;-56
2023/08/05 04:07:31;;;;;;;11.10;6.85;;;14.20;99.90;;;;;;5067097;28;20053;-56
2023/08/05 04:09:57;;;;;;;10.70;6.80;;;14.20;99.90;;;;;;5093469;28;20041;-56
2023/08/05 04:12:25;;;;;;;13.82;6.78;;;14.20;99.90;;;;;;5058651;28;20148;-56
2023/08/05 04:14:51;;;;;;;14.27;7.13;;;14.20;99.90;;;;;;5075553;28;20053;-56
2023/08/05 04:17:18;;;;;;;11.10;6.47;;;14.30;99.90;;;;;;5077546;28;20419;-56
2023/08/05 04:19:46;;;;;;;10.07;6.50;;;14.30;99.90;;;;;;5079165;28;20045;-56
2023/08/05 04:22:12;;;;;;;9.15;6.43;;;14.30;99.90;;;;;;5080309;28;20041;-56
2023/08/05 04:24:41;;;;;;;12.20;6.47;;;14.30;99.90;;;;;;5077715;28;20089;-56
2023/08/05 04:27:07;;;;;;;12.73;6.60;;;14.30;99.90;;;;;;5079150;28;20053;-56
2023/08/05 04:29:33;;;;;;;9.32;6.55;;;14.30;99.90;;;;;;5073415;28;20048;-56
2023/08/05 04:31:59;;;;;;;10.30;5.53;;;14.30;99.90;;;;;;5078865;28;20056;-56
2023/08/05 04:34:25;;;;;;;13.90;6.05;;;14.30;99.90;;;;;;5078021;28;20040;-56
2023/08/05 04:36:51;;;;;;;11.75;5.82;;;14.30;99.90;;;;;;5077914;28;20036;-56
2023/08/05 04:39:21;;;;;;;12.88;6.53;;;14.40;99.90;;;;;;5079705;28;20048;-57
2023/08/05 04:41:46;;;;;;;10.45;5.93;;;14.40;99.90;;;;;;5074637;28;20045;-56
2023/08/05 04:44:12;;;;;;;15.30;5.85;;;14.40;99.90;;;;;;5079477;28;20040;-56
2023/08/05 04:46:39;;;;;;;11.82;5.78;;;14.40;99.90;;;;;;5077891;28;20158;-57
2023/08/05 04:49:07;;;;;;;11.02;5.93;;;14.50;99.90;;;;;;5080247;28;20135;-56
2023/08/05 04:51:37;;;;;;;7.55;4.95;;;14.50;99.90;;;;;;5077209;28;20096;-55
2023/08/05 04:54:04;;;;;;;12.80;5.60;;;14.60;99.90;;;;;;5092517;28;20102;-56
2023/08/05 04:56:30;;;;;;;9.63;5.18;;;14.60;99.90;;;;;;5059796;28;20045;-56
2023/08/05 04:58:56;;;;;;;10.52;5.35;;;14.60;99.90;;;;;;5072221;28;20123;-56
2023/08/05 05:01:21;;;;;;;14.00;5.35;;;14.70;99.90;;;;;;5078387;28;20032;-56
2023/08/05 05:03:49;;;;;;;10.50;4.60;;;14.70;99.90;;;;;;5069065;28;20404;-56
2023/08/05 05:06:14;;;;;;;11.88;4.82;;;14.80;99.90;;;;;;5084012;28;20037;-56
2023/08/05 05:08:40;;;;;;;8.07;4.55;;;14.80;99.90;;;;;;5082051;28;20048;-56
2023/08/05 05:11:09;;;;;;;10.43;4.53;;;14.80;99.90;;;;;;5082160;28;20048;-57
2023/08/05 05:13:35;;;;;;;9.32;4.75;;;14.90;99.90;;;;;;5102692;28;20041;-56
2023/08/05 05:16:02;;;;;;;9.18;4.88;;;14.90;99.90;;;;;;5079508;28;20059;-56
2023/08/05 05:18:28;;;;;;;9.30;4.93;;;14.90;99.90;;;;;;5081615;28;20048;-56
2023/08/05 05:20:54;;;;;;;8.38;4.60;;;14.90;99.90;;;;;;5077107;28;20040;-56
2023/08/05 05:23:20;;;;;;;7.47;4.43;;;14.90;99.90;;;;;;5071722;28;20068;-56
2023/08/05 05:25:46;;;;;;;13.73;5.03;;;14.90;99.90;;;;;;5071451;28;20033;-56
2023/08/05 05:28:12;;;;;;;11.10;4.78;;;14.90;99.90;;;;;;5076110;28;20078;-56
2023/08/05 05:30:37;;;;;;;9.48;5.45;;;14.90;99.90;;;;;;5082508;28;20033;-56
2023/08/05 05:33:03;;;;;;;10.07;4.93;;;14.90;99.90;;;;;;5073094;28;20574;-56
2023/08/05 05:35:30;;;;;;;8.93;5.68;;;14.90;99.90;;;;;;5080288;28;20127;-56
2023/08/05 05:37:55;;;;;;;9.60;5.57;;;14.90;99.90;;;;;;5073421;28;20055;-56
2023/08/05 05:40:21;;;;;;;12.48;5.35;;;15.00;99.90;;;;;;5078963;28;20036;-54
2023/08/05 05:42:49;;;;;;;9.20;5.38;;;15.00;99.90;;;;;;5079968;28;20072;-56
2023/08/05 05:45:15;;;;;;;9.57;5.65;;;15.10;99.90;;;;;;5076187;28;20132;-56
2023/08/05 05:47:41;;;;;;;9.77;5.72;;;15.10;99.90;;;;;;5061199;28;20199;-56
2023/08/05 05:50:08;;;;;;;13.00;5.30;;;15.20;99.90;;;;;;5064451;28;20073;-56
2023/08/05 05:52:36;;;;;;;9.13;5.32;;;15.20;99.90;;;;;;5110602;28;20071;-56
2023/08/05 05:55:03;;;;;;;9.93;5.38;;;15.30;99.90;;;;;;5075145;28;20041;-56
2023/08/05 05:57:29;;;;;;;10.68;5.05;;;15.40;99.90;;;;;;5082499;28;20068;-56
2023/08/05 05:59:56;;;;;;;9.95;4.53;;;15.40;99.90;;;;;;5081451;28;20459;-56
2023/08/05 06:02:22;;;;;;;9.75;5.20;;;15.40;99.90;;;;;;5071489;28;20049;-57
2023/08/05 06:04:47;;;;;;;12.57;4.90;;;15.50;99.90;;;;;;5077897;28;20481;-56
2023/08/05 06:07:13;;;;;;;10.77;4.90;;;15.50;99.90;;;;;;5075375;28;20032;-57
2023/08/05 06:09:39;;;;;;;13.60;5.32;;;15.50;99.90;;;;;;5081982;28;20044;-57
2023/08/05 06:12:07;;;;;;;8.65;4.43;;;15.60;99.90;;;;;;5060956;28;20056;-57
2023/08/05 06:14:33;;;;;;;8.27;5.22;;;15.60;99.90;;;;;;5081908;28;20409;-56
2023/08/05 06:16:59;;;;;;;8.73;5.00;;;15.60;99.90;;;;;;5062610;28;20051;-56
2023/08/05 06:19:25;;;;;;;8.20;4.85;;;15.60;99.90;;;;;;5074827;28;20037;-56
2023/08/05 06:21:51;;;;;;;10.63;4.63;;;15.60;99.90;;;;;;5078783;28;20104;-56
2023/08/05 06:24:16;;;;;;;7.22;4.30;;;15.50;99.90;;;;;;5076261;28;20052;-57
2023/08/05 06:26:42;;;;;;;8.27;5.10;;;15.80;99.90;;;;;;5079731;28;20053;-56
2023/08/05 06:29:08;;;;;;;13.55;4.85;;;15.50;99.90;;;;;;5078969;28;20036;-57
2023/08/05 06:31:33;;;;;;;10.23;5.43;;;15.50;99.90;;;;;;5076786;28;20048;-57
2023/08/05 06:33:59;;;;;;;9.23;4.50;;;15.40;99.90;;;;;;5076673;28;20054;-57
2023/08/05 06:36:24;;;;;;;7.65;5.05;;;15.50;99.90;;;;;;5080523;28;20042;-56
2023/08/05 06:38:50;;;;;;;12.13;4.78;;;15.40;99.90;;;;;;5080679;28;20032;-56
2023/08/05 06:41:16;;;;;;;7.60;4.95;;;15.50;99.90;;;;;;5065429;28;20121;-57
2023/08/05 06:43:42;;;;;;;11.35;5.25;;;15.60;99.90;;;;;;5092751;28;20649;-57
2023/08/05 06:46:07;;;;;;;9.80;4.72;;;15.70;99.90;;;;;;5077259;28;20048;-57
2023/08/05 06:48:33;;;;;;;8.52;4.57;;;15.70;99.90;;;;;;5068036;28;20065;-57
2023/08/05 06:50:59;;;;;;;8.43;5.03;;;15.90;99.90;;;;;;5069691;28;20037;-57
2023/08/05 06:53:25;;;;;;;9.48;4.82;;;16.10;99.90;;;;;;5080161;28;20041;-57
2023/08/05 06:56:04;;;;;;;10.73;4.57;;;16.20;99.90;;;;;;5067125;28;20045;-56
2023/08/05 06:58:30;;;;;;;14.07;5.72;;;16.30;99.90;;;;;;5092617;28;20045;-57
2023/08/05 07:00:56;;;;;;;8.60;4.40;;;16.30;99.90;;;;;;5064643;28;20101;-54
2023/08/05 07:03:23;;;;;;;6.82;4.25;;;16.30;99.90;;;;;;5073509;28;20039;-56
2023/08/05 07:05:52;;;;;;;10.32;4.85;;;16.30;99.90;;;;;;5079337;28;20061;-56
2023/08/05 07:08:22;;;;;;;7.60;4.38;;;16.30;99.90;;;;;;5058719;28;20044;-56
2023/08/05 07:10:53;;;;;;;8.80;3.90;;;16.30;99.90;;;;;;5061395;28;20045;-56
2023/08/05 07:13:19;;;;;;;7.55;4.10;;;16.40;99.90;;;;;;5078458;28;20048;-56
2023/08/05 07:15:45;;;;;;;9.20;4.15;;;16.50;99.90;;;;;;5079788;28;20463;-57
2023/08/05 07:18:10;;;;;;;7.35;3.75;;;16.60;99.90;;;;;;5080094;28;20047;-56
2023/08/05 07:20:40;;;;;;;6.82;3.72;;;16.70;99.90;;;;;;5078168;28;20036;-56
2023/08/05 07:23:06;;;;;;;9.65;3.90;;;16.70;99.90;;;;;;5081129;28;20512;-56
2023/08/05 07:25:31;;;;;;;7.65;3.47;;;16.70;99.90;;;;;;5078453;28;20047;-55
2023/08/05 07:27:57;;;;;;;9.25;3.53;;;16.70;99.90;;;;;;5078780;28;20092;-56
2023/08/05 07:30:23;;;;;;;8.60;3.33;;;16.70;99.90;;;;;;5077131;28;20043;-56
2023/08/05 07:32:48;;;;;;;10.40;3.55;;;16.70;99.90;;;;;;5079778;28;20661;-56
2023/08/05 07:35:14;;;;;;;8.13;3.47;;;16.70;99.90;;;;;;5079947;28;20439;-56
2023/08/05 07:37:43;;;;;;;7.00;3.00;;;16.80;99.90;;;;;;5079456;28;20045;-56
2023/08/05 07:40:12;;;;;;;3.92;2.80;;;16.70;99.90;;;;;;5078320;28;20033;-57
2023/08/05 07:42:45;;;;;;;8.13;3.42;;;16.70;99.90;;;;;;5078924;28;20040;-54
2023/08/05 07:45:16;;;;;;;7.95;3.25;;;16.70;99.90;;;;;;5080579;28;20048;-57
2023/08/05 07:47:43;;;;;;;8.40;3.35;;;16.80;99.90;;;;;;5078859;28;20053;-56
2023/08/05 07:50:16;;;;;;;8.10;3.17;;;16.80;99.90;;;;;;5074243;28;20068;-56
2023/08/05 07:52:42;;;;;;;7.50;3.10;;;16.90;99.90;;;;;;5080736;28;20071;-56
2023/08/05 07:55:08;;;;;;;11.50;3.15;;;17.00;99.90;;;;;;5078973;28;20524;-57
2023/08/05 07:57:35;;;;;;;8.05;3.22;;;17.00;99.90;;;;;;5080876;28;20040;-57
2023/08/05 08:00:01;;;;;;;7.32;3.13;;;17.20;99.90;;;;;;5072732;28;20045;-56
2023/08/05 08:02:26;;;;;;;8.13;3.28;;;17.20;99.90;;;;;;5079043;28;20032;-57
2023/08/05 08:04:55;;;;;;;6.10;3.03;;;17.20;99.90;;;;;;5079829;28;20052;-57
2023/08/05 08:07:24;;;;;;;4.55;2.80;;;17.30;99.90;;;;;;5079087;28;20056;-56
2023/08/05 08:09:50;;;;;;;8.25;3.03;;;17.40;99.90;;;;;;5077162;28;20052;-56
2023/08/05 08:12:16;;;;;;;6.07;3.00;;;17.40;99.90;;;;;;5077593;28;20071;-56
2023/08/05 08:14:41;;;;;;;6.25;3.00;;;17.40;99.90;;;;;;5078031;28;20059;-56
2023/08/05 08:17:07;;;;;;;6.95;3.00;;;17.40;99.90;;;;;;5078979;28;20468;-56
2023/08/05 08:19:33;;;;;;;13.52;3.67;;;17.40;99.90;;;;;;5079821;28;20072;-57
2023/08/05 08:21:58;;;;;;;7.95;3.38;;;17.40;99.90;;;;;;5060818;28;20111;-56
2023/08/05 08:24:24;;;;;;;8.38;2.95;;;17.40;99.90;;;;;;5108467;28;20033;-57
2023/08/05 08:26:50;;;;;;;9.18;3.10;;;17.50;99.90;;;;;;5080209;28;20096;-56
2023/08/05 08:29:15;;;;;;;8.50;3.17;;;17.50;99.90;;;;;;5078120;28;20036;-56
2023/08/05 08:31:41;;;;;;;7.72;3.30;;;17.60;99.90;;;;;;5076628;28;20037;-57
2023/08/05 08:34:07;;;;;;;5.22;2.65;;;17.70;99.90;;;;;;5077896;28;20482;-56
2023/08/05 08:36:32;;;;;;;8.85;2.90;;;17.70;99.90;;;;;;5079188;28;20601;-56
2023/08/05 08:38:58;;;;;;;8.88;2.53;;;17.90;99.90;;;;;;5082229;28;20055;-56
2023/08/05 08:41:24;;;;;;;6.50;2.70;;;18.10;99.90;;;;;;5064663;28;20033;-57
2023/08/05 08:43:51;;;;;;;7.75;3.08;;;18.20;99.90;;;;;;5076483;28;20049;-56
2023/08/05 08:46:19;;;;;;;5.78;3.05;;;18.30;99.90;;;;;;5078014;28;20073;-56
2023/08/05 08:48:48;;;;;;;4.93;2.72;;;18.30;99.90;;;;;;5073441;28;20037;-57
2023/08/05 08:51:17;;;;;;;4.00;2.75;;;18.40;99.90;;;;;;5080571;28;20048;-57
2023/08/05 08:53:43;;;;;;;10.20;3.28;;;18.50;99.90;;;;;;5083286;28;20036;-57
2023/08/05 08:56:10;;;;;;;8.52;2.90;;;18.50;99.90;;;;;;5074286;28;20044;-54
2023/08/05 08:58:35;;;;;;;8.70;3.33;;;18.40;99.90;;;;;;5080559;28;20036;-57
2023/08/05 09:01:03;;;;;;;8.13;3.10;;;18.50;99.90;;;;;;5082993;28;20047;-56
2023/08/05 09:03:32;;;;;;;8.00;3.08;;;18.60;99.90;;;;;;5080261;28;20053;-56
2023/08/05 09:05:59;;;;;;;5.93;3.08;;;18.70;99.90;;;;;;5068649;28;20037;-57
2023/08/05 09:08:25;;;;;;;10.75;3.83;;;18.80;99.90;;;;;;5076930;28;20048;-57
2023/08/05 09:10:51;;;;;;;7.53;3.78;;;19.00;99.90;;;;;;5083296;28;20036;-56
2023/08/05 09:13:17;;;;;;;7.10;3.20;;;19.20;99.90;;;;;;5075286;28;20130;-56
2023/08/05 09:15:43;;;;;;;6.78;3.97;;;19.30;99.90;;;;;;5062089;28;20052;-57
2023/08/05 09:18:09;;;;;;;8.43;4.05;;;19.30;99.90;;;;;;5080857;28;20045;-56
2023/08/05 09:20:36;;;;;;;6.97;3.63;;;19.40;99.90;;;;;;5080868;28;20074;-57
2023/08/05 09:23:05;;;;;;;7.75;3.85;;;19.50;99.90;;;;;;5081905;28;20040;-57
2023/08/05 09:25:32;;;;;;;10.35;4.00;;;19.50;99.90;;;;;;5081402;28;20296;-57
2023/08/05 09:28:00;;;;;;;7.90;3.35;;;19.40;99.90;;;;;;5063526;28;20049;-57
2023/08/05 09:30:27;;;;;;;7.53;3.80;;;19.50;99.90;;;;;;5079210;28;20047;-56
2023/08/05 09:32:54;;;;;;;7.00;3.50;;;19.50;99.90;;;;;;5073032;28;20648;-57
2023/08/05 09:35:19;;;;;;;8.38;3.70;;;19.60;99.90;;;;;;5078980;28;21186;-57
2023/08/05 09:37:51;;;;;;;8.35;3.35;;;19.60;99.90;;;;;;5076487;28;20041;-57
2023/08/05 09:40:24;;;;;;;7.70;3.80;;;19.70;99.90;;;;;;5069561;28;20059;-58
2023/08/05 09:42:52;;;;;;;7.63;3.10;;;19.70;99.90;;;;;;5072094;28;20544;-57
2023/08/05 09:45:19;;;;;;;6.47;3.40;;;19.70;99.90;;;;;;5078553;28;20041;-57
2023/08/05 09:47:52;;;;;;;7.00;3.92;;;19.70;99.90;;;;;;5079979;28;20036;-56
2023/08/05 09:50:20;;;;;;;6.10;3.38;;;19.80;99.90;;;;;;5080961;28;20504;-57
2023/08/05 09:52:50;;;;;;;8.68;3.80;;;19.90;99.90;;;;;;5081421;28;20039;-56
2023/08/05 09:55:17;;;;;;;7.25;4.03;;;20.00;99.90;;;;;;5078663;28;20033;-56
2023/08/05 09:57:43;;;;;;;7.80;3.72;;;20.10;99.90;;;;;;5081661;28;20044;-56
2023/08/05 10:00:12;;;;;;;7.15;4.05;;;20.20;99.90;;;;;;5081500;28;20059;-56
2023/08/05 10:02:41;;;;;;;8.55;4.30;;;20.20;99.90;;;;;;5081757;28;20614;-56
2023/08/05 10:05:09;;;;;;;8.07;4.00;;;20.10;99.90;;;;;;5079342;28;20040;-56
2023/08/05 10:07:36;;;;;;;7.45;4.20;;;20.10;99.90;;;;;;5071838;28;20499;-57
2023/08/05 10:10:12;;;;;;;8.85;3.80;;;20.10;99.90;;;;;;5081118;28;20350;-57
2023/08/05 10:12:50;;;;;;;8.70;3.60;;;20.10;99.90;;;;;;5072199;28;20397;-57
2023/08/05 10:15:28;;;;;;;6.38;4.00;;;20.10;99.90;;;;;;5080038;28;20055;-57
2023/08/05 10:17:54;;;;;;;6.10;3.75;;;20.00;99.90;;;;;;5080946;28;20523;-56
2023/08/05 10:20:20;;;;;;;6.85;3.90;;;19.90;99.90;;;;;;5075878;28;20036;-57
2023/08/05 10:23:09;;;;;;;5.10;3.22;;;19.80;99.90;;;;;;5082423;28;20354;-57
2023/08/05 10:25:42;;;;;;;6.75;3.80;;;19.70;99.90;;;;;;5077266;28;20106;-56
2023/08/05 10:28:10;;;;;;;6.30;4.10;;;19.60;99.90;;;;;;5075191;28;20064;-57
2023/08/05 10:30:41;;;;;;;5.50;3.90;;;19.60;99.90;;;;;;5076365;28;20052;-56
2023/08/05 10:33:07;;;;;;;7.53;3.95;;;19.60;99.90;;;;;;5078643;28;20115;-57
2023/08/05 10:35:40;;;;;;;7.45;4.25;;;19.60;99.90;;;;;;5080776;28;20049;-57
2023/08/05 10:38:14;;;;;;;6.03;4.50;;;19.60;99.90;;;;;;5072976;28;20044;-57
2023/08/05 10:40:52;;;;;;;5.45;4.03;;;19.60;99.90;;;;;;5114327;28;20561;-57
2023/08/05 10:43:33;;;;;;;9.05;4.93;;;19.60;99.90;;;;;;5079744;28;20442;-56
2023/08/05 10:46:00;;;;;;;7.18;4.85;;;19.70;99.90;;;;;;5080398;28;20510;-57
2023/08/05 10:48:36;;;;;;;6.97;4.40;;;19.80;99.90;;;;;;5080466;28;20078;-56
2023/08/05 10:51:24;;;;;;;7.43;5.25;;;19.90;99.90;;;;;;5058589;28;20048;-57
2023/08/05 10:53:53;;;;;;;10.18;5.32;;;19.90;99.90;;;;;;5074255;28;20706;-57
2023/08/05 10:56:28;;;;;;;6.60;4.38;;;19.90;99.90;;;;;;5079196;28;20053;-58
2023/08/05 10:58:53;;;;;;;11.20;5.78;;;19.90;99.90;;;;;;5079285;28;20040;-58
2023/08/05 11:01:19;;;;;;;6.50;5.00;;;20.10;99.90;;;;;;5076049;28;20065;-56
2023/08/05 11:03:45;;;;;;;6.45;4.93;;;20.30;99.90;;;;;;5070238;28;20046;-57
2023/08/05 11:06:13;;;;;;;9.75;4.80;;;20.50;99.90;;;;;;5080541;28;20054;-57
2023/08/05 11:08:41;;;;;;;7.53;4.00;;;20.60;99.90;;;;;;5079468;28;20045;-57
2023/08/05 11:11:11;;;;;;;5.47;3.95;;;20.70;99.90;;;;;;5079114;28;20468;-57
2023/08/05 11:13:38;;;;;;;4.90;3.55;;;20.80;99.90;;;;;;5077685;28;20049;-56
2023/08/05 11:16:09;;;;;;;4.70;3.53;;;20.80;99.90;;;;;;5078527;28;20060;-57
2023/08/05 11:18:35;;;;;;;6.13;3.50;;;20.80;99.90;;;;;;5079540;28;20060;-57
2023/08/05 11:21:04;;;;;;;6.22;3.47;;;20.90;99.90;;;;;;5079562;28;20048;-57
2023/08/05 11:23:30;;;;;;;5.45;3.20;;;21.00;99.90;;;;;;5067970;28;20507;-57
2023/08/05 11:26:00;;;;;;;4.40;3.63;;;21.00;99.90;;;;;;5075397;28;20421;-56
2023/08/05 11:28:26;;;;;;;5.22;3.28;;;21.00;99.90;;;;;;5066327;28;20048;-56
2023/08/05 11:30:53;;;;;;;7.13;3.65;;;21.00;99.90;;;;;;5074794;28;20056;-57
2023/08/05 11:33:19;;;;;;;4.93;3.30;;;21.00;99.90;;;;;;5077720;28;20059;-57
2023/08/05 11:35:47;;;;;;;4.45;3.10;;;21.00;99.90;;;;;;5077037;28;20040;-56
2023/08/05 11:38:17;;;;;;;4.65;2.90;;;21.00;99.90;;;;;;5079121;28;20079;-57
2023/08/05 11:40:45;;;;;;;5.13;2.95;;;20.90;99.90;;;;;;5078213;28;20053;-57
2023/08/05 11:43:14;;;;;;;3.53;2.30;;;21.00;99.90;;;;;;5078256;28;20044;-57
2023/08/05 11:45:40;;;;;;;2.65;2.10;;;21.10;99.90;;;;;;5077332;28;20593;-57
2023/08/05 11:48:36;;;;;;;3.67;2.13;;;21.10;99.90;;;;;;5071376;28;20297;-56
2023/08/05 11:51:05;;;;;;;7.10;2.58;;;21.20;99.90;;;;;;5056393;28;20049;-57
2023/08/05 11:53:31;;;;;;;5.30;2.22;;;21.20;99.90;;;;;;5059849;28;20041;-57
2023/08/05 11:55:56;;;;;;;3.50;2.40;;;21.30;99.90;;;;;;5057097;28;20080;-56
2023/08/05 11:58:27;;;;;;;3.67;2.47;;;21.30;99.90;;;;;;5077847;28;20098;-57
2023/08/05 12:00:59;;;;;;;3.10;2.10;;;21.40;99.90;;;;;;5079478;28;20124;-57
2023/08/05 12:03:34;;;;;;;5.93;2.80;;;21.50;99.90;;;;;;5077740;28;20040;-57
2023/08/05 12:06:03;;;;;;;4.53;2.20;;;21.50;99.90;;;;;;5079580;28;20048;-57
2023/08/05 12:08:42;;;;;;;3.55;2.30;;;21.50;99.90;;;;;;5077454;28;20074;-57
2023/08/05 12:11:08;;;;;;;6.07;2.30;;;21.60;99.90;;;;;;5080027;28;20079;-57
2023/08/05 12:13:34;;;;;;;3.83;2.50;;;21.60;99.90;;;;;;5086411;28;20049;-56
2023/08/05 12:16:01;;;;;;;2.45;2.03;;;21.60;99.90;;;;;;5073643;28;20049;-58
2023/08/05 12:18:26;;;;;;;4.20;2.40;;;21.60;99.90;;;;;;5087073;28;20081;-57
2023/08/05 12:20:52;;;;;;;2.67;1.90;;;21.60;99.90;;;;;;5085581;28;20048;-57
2023/08/05 12:23:18;;;;;;;3.50;2.20;;;21.70;99.90;;;;;;5087522;28;20068;-56
2023/08/05 12:25:43;;;;;;;4.68;2.00;;;21.70;99.90;;;;;;5084602;28;20356;-57
2023/08/05 12:28:09;;;;;;;2.35;1.83;;;21.80;99.90;;;;;;5086708;28;20098;-56
2023/08/05 12:30:35;;;;;;;3.47;1.92;;;21.80;99.90;;;;;;5086791;28;20040;-57
2023/08/05 12:33:02;;;;;;;3.97;2.20;;;21.70;99.90;;;;;;5067115;28;20503;-57
2023/08/05 12:35:28;;;;;;;4.03;2.28;;;21.90;99.90;;;;;;5086796;28;20110;-56
2023/08/05 12:37:54;;;;;;;4.07;2.22;;;21.60;99.90;;;;;;5084300;28;20044;-57
2023/08/05 12:40:20;;;;;;;3.10;1.70;;;21.60;99.90;;;;;;5074348;28;20052;-56
2023/08/05 12:42:45;;;;;;;2.83;2.10;;;21.60;99.90;;;;;;5097423;28;20044;-57